createdAt,value
2022-10-08T00:01:08.788Z,25.40
2022-10-08T00:03:38.707Z,25.40
2022-10-08T00:06:09.637Z,25.40
2022-10-08T00:08:38.323Z,25.40
2022-10-08T00:11:07.236Z,25.40
2022-10-08T00:13:43.471Z,25.50
2022-10-08T00:16:13.765Z,25.50
2022-10-08T00:18:42.037Z,25.60
2022-10-08T00:21:14.679Z,25.50
2022-10-08T00:23:42.871Z,25.60
2022-10-08T00:26:11.559Z,25.60
2022-10-08T00:28:40.421Z,25.60
2022-10-08T00:31:16.635Z,25.70
2022-10-08T00:33:44.231Z,25.70
2022-10-08T00:36:13.039Z,25.70
2022-10-08T00:38:40.696Z,25.80
2022-10-08T00:41:09.242Z,25.80
2022-10-08T00:43:48.232Z,25.90
2022-10-08T00:46:36.131Z,26.00
2022-10-08T00:49:07.194Z,26.00
2022-10-08T00:51:35.915Z,26.10
2022-10-08T00:54:04.874Z,26.10
2022-10-08T00:56:36.361Z,26.20
2022-10-08T00:59:06.034Z,26.30
2022-10-08T01:01:34.625Z,26.30
2022-10-08T01:04:06.901Z,26.40
2022-10-08T01:06:54.286Z,26.50
2022-10-08T01:09:32.201Z,26.50
2022-10-08T01:12:11.970Z,26.60
2022-10-08T01:14:52.504Z,26.70
2022-10-08T01:17:32.262Z,26.80
2022-10-08T01:20:15.121Z,26.90
2022-10-08T01:23:05.127Z,27.00
2022-10-08T01:25:45.854Z,27.10
2022-10-08T01:28:18.521Z,27.20
2022-10-08T01:30:54.665Z,27.30
2022-10-08T01:33:29.150Z,27.40
2022-10-08T01:35:58.504Z,27.50
2022-10-08T01:38:28.689Z,27.60
2022-10-08T01:40:59.438Z,27.70
2022-10-08T01:43:31.173Z,27.70
2022-10-08T01:46:02.437Z,27.80
2022-10-08T01:48:33.022Z,27.90
2022-10-08T01:51:06.430Z,28.00
2022-10-08T01:53:38.347Z,28.00
2022-10-08T01:56:08.393Z,28.10
2022-10-08T01:58:46.033Z,28.20
2022-10-08T02:01:20.110Z,28.20
2022-10-08T02:04:01.605Z,28.30
2022-10-08T02:06:35.958Z,28.30
2022-10-08T02:09:06.139Z,28.40
2022-10-08T02:11:37.970Z,28.50
2022-10-08T02:14:09.775Z,28.60
2022-10-08T02:16:54.963Z,28.70
2022-10-08T02:19:42.209Z,28.80
2022-10-08T02:22:11.668Z,28.90
2022-10-08T02:24:43.968Z,28.90
2022-10-08T02:27:15.222Z,28.90
2022-10-08T02:29:48.334Z,28.90
2022-10-08T02:32:20.078Z,29.00
2022-10-08T02:34:55.427Z,29.10
2022-10-08T02:37:33.124Z,29.10
2022-10-08T02:40:03.003Z,29.20
2022-10-08T02:42:32.382Z,29.20
2022-10-08T02:45:06.116Z,29.30
2022-10-08T02:47:36.312Z,29.30
2022-10-08T02:50:06.350Z,29.40
2022-10-08T02:52:44.321Z,29.50
2022-10-08T02:55:24.400Z,29.50
2022-10-08T02:58:00.717Z,29.50
2022-10-08T03:00:35.756Z,29.50
2022-10-08T03:03:09.009Z,29.50
2022-10-08T03:05:37.482Z,29.60
2022-10-08T03:08:06.728Z,29.60
2022-10-08T03:10:36.595Z,29.60
2022-10-08T03:13:05.618Z,29.60
2022-10-08T03:15:34.237Z,29.70
2022-10-08T03:18:03.910Z,29.80
2022-10-08T03:20:33.219Z,29.80
2022-10-08T03:23:03.247Z,29.80
2022-10-08T03:25:30.876Z,29.90
2022-10-08T03:28:02.398Z,29.90
2022-10-08T03:30:30.317Z,29.90
2022-10-08T03:33:06.064Z,30.00
2022-10-08T03:35:34.450Z,30.00
2022-10-08T03:38:03.345Z,30.00
2022-10-08T03:40:35.074Z,30.00
2022-10-08T03:43:03.021Z,29.90
2022-10-08T03:48:13.792Z,29.90
2022-10-08T03:50:49.656Z,30.00
2022-10-08T03:53:20.224Z,30.00
2022-10-08T03:55:48.980Z,30.10
2022-10-08T03:58:16.663Z,30.10
2022-10-08T04:01:03.846Z,30.10
2022-10-08T04:03:32.200Z,30.10
2022-10-08T04:06:00.894Z,30.00
2022-10-08T04:08:29.679Z,30.10
2022-10-08T04:11:00.407Z,30.10
2022-10-08T04:13:28.377Z,30.10
2022-10-08T04:16:00.423Z,30.00
2022-10-08T04:18:29.222Z,30.00
2022-10-08T04:21:03.522Z,30.00
2022-10-08T04:23:38.109Z,30.10
2022-10-08T04:26:06.939Z,30.10
2022-10-08T04:28:38.920Z,30.20
2022-10-08T04:31:09.530Z,30.20
2022-10-08T04:33:37.928Z,30.30
2022-10-08T04:51:01.441Z,30.50
2022-10-08T04:53:31.308Z,30.60
2022-10-08T04:56:10.370Z,30.80
2022-10-08T04:58:38.755Z,30.90
2022-10-08T05:01:11.211Z,30.90
2022-10-08T05:03:51.453Z,30.90
2022-10-08T05:06:20.559Z,30.90
2022-10-08T05:08:49.835Z,30.90
2022-10-08T05:11:19.094Z,30.80
2022-10-08T05:13:53.361Z,30.70
2022-10-08T05:16:22.265Z,30.60
2022-10-08T05:18:56.863Z,30.70
2022-10-08T05:21:31.689Z,30.80
2022-10-08T05:24:02.603Z,30.90
2022-10-08T05:29:20.621Z,30.90
2022-10-08T05:31:48.200Z,30.90
2022-10-08T05:34:16.129Z,31.00
2022-10-08T05:36:44.075Z,31.00
2022-10-08T05:39:12.155Z,31.00
2022-10-08T05:41:39.703Z,31.00
2022-10-08T05:44:07.647Z,31.00
2022-10-08T05:46:36.065Z,31.00
2022-10-08T05:49:05.455Z,30.90
2022-10-08T05:51:33.261Z,30.90
2022-10-08T05:54:01.607Z,30.90
2022-10-08T05:56:30.542Z,30.80
2022-10-08T05:58:58.500Z,30.80
2022-10-08T06:01:28.831Z,30.80
2022-10-08T06:04:08.052Z,30.80
2022-10-08T06:06:37.018Z,30.80
2022-10-08T06:09:11.305Z,30.70
2022-10-08T06:11:44.108Z,30.70
2022-10-08T06:14:12.634Z,30.70
2022-10-08T06:16:42.185Z,30.80
2022-10-08T06:19:10.633Z,30.80
2022-10-08T06:21:39.387Z,31.00
2022-10-08T06:24:11.726Z,31.10
2022-10-08T06:26:40.773Z,31.10
2022-10-08T06:29:09.391Z,31.20
2022-10-08T06:31:37.962Z,31.20
2022-10-08T06:34:05.809Z,31.20
2022-10-08T06:36:38.470Z,31.20
2022-10-08T06:39:07.826Z,31.20
2022-10-08T06:41:36.043Z,31.20
2022-10-08T06:44:06.085Z,31.20
2022-10-08T06:46:34.220Z,31.10
2022-10-08T06:49:07.049Z,31.10
2022-10-08T06:51:35.149Z,31.00
2022-10-08T06:54:07.302Z,31.00
2022-10-08T06:56:36.559Z,31.10
2022-10-08T06:59:06.930Z,31.10
2022-10-08T07:01:36.076Z,31.10
2022-10-08T07:04:07.301Z,31.20
2022-10-08T07:06:35.354Z,31.30
2022-10-08T07:09:06.745Z,31.30
2022-10-08T07:11:44.954Z,31.30
2022-10-08T07:14:12.874Z,31.30
2022-10-08T07:16:44.861Z,31.20
2022-10-08T07:19:13.075Z,31.20
2022-10-08T07:21:41.844Z,31.30
2022-10-08T07:24:11.268Z,31.30
2022-10-08T07:26:41.851Z,31.40
2022-10-08T07:29:14.563Z,31.40
2022-10-08T07:31:42.399Z,31.40
2022-10-08T07:34:13.525Z,31.40
2022-10-08T07:36:41.215Z,31.40
2022-10-08T07:39:12.131Z,31.50
2022-10-08T07:41:40.127Z,31.50
2022-10-08T07:44:09.187Z,31.50
2022-10-08T07:46:38.966Z,31.50
2022-10-08T07:49:07.409Z,31.50
2022-10-08T07:51:35.426Z,31.50
2022-10-08T07:54:07.795Z,31.60
2022-10-08T07:56:36.690Z,31.60
2022-10-08T07:59:05.679Z,31.60
2022-10-08T08:01:34.492Z,31.70
2022-10-08T08:04:05.535Z,31.60
2022-10-08T08:06:34.980Z,31.60
2022-10-08T08:09:02.595Z,31.60
2022-10-08T08:11:30.382Z,31.60
2022-10-08T08:13:59.450Z,31.60
2022-10-08T08:16:29.273Z,31.60
2022-10-08T08:19:01.818Z,31.60
2022-10-08T08:21:30.907Z,31.60
2022-10-08T08:24:01.075Z,31.60
2022-10-08T08:26:30.538Z,31.60
2022-10-08T08:29:00.149Z,31.50
2022-10-08T08:31:32.287Z,31.50
2022-10-08T08:34:01.397Z,31.50
2022-10-08T08:36:30.565Z,31.50
2022-10-08T08:39:04.364Z,31.40
2022-10-08T08:41:51.726Z,31.50
2022-10-08T08:44:20.932Z,31.50
2022-10-08T08:47:01.438Z,31.50
2022-10-08T08:49:48.711Z,31.50
2022-10-08T08:52:18.689Z,31.50
2022-10-08T08:55:00.750Z,31.50
2022-10-08T08:57:42.008Z,31.50
2022-10-08T09:00:22.234Z,31.50
2022-10-08T09:03:12.730Z,31.40
2022-10-08T09:05:43.404Z,31.30
2022-10-08T09:08:17.429Z,31.30
2022-10-08T09:10:49.963Z,31.30
2022-10-08T09:13:37.235Z,31.30
2022-10-08T09:16:04.960Z,31.30
2022-10-08T09:18:33.854Z,31.30
2022-10-08T09:21:06.110Z,31.30
2022-10-08T09:23:34.261Z,31.40
2022-10-08T09:26:20.409Z,31.40
2022-10-08T09:28:49.702Z,31.50
2022-10-08T09:31:26.542Z,31.50
2022-10-08T09:34:06.485Z,31.60
2022-10-08T09:36:36.489Z,31.50
2022-10-08T09:39:07.025Z,31.50
2022-10-08T09:41:36.067Z,31.50
2022-10-08T09:44:23.300Z,31.50
2022-10-08T09:47:04.568Z,31.50
2022-10-08T09:49:34.328Z,31.50
2022-10-08T09:52:05.445Z,31.50
2022-10-08T09:54:36.580Z,31.50
2022-10-08T09:57:05.346Z,31.50
2022-10-08T09:59:44.415Z,31.40
2022-10-08T10:02:27.496Z,31.40
2022-10-08T10:04:56.386Z,31.40
2022-10-08T10:07:24.933Z,31.40
2022-10-08T10:09:57.332Z,31.30
2022-10-08T10:12:32.225Z,31.30
2022-10-08T10:15:03.939Z,31.30
2022-10-08T10:17:40.867Z,31.20
2022-10-08T10:20:28.171Z,31.20
2022-10-08T10:23:07.533Z,31.10
2022-10-08T10:25:37.869Z,31.10
2022-10-08T10:28:09.622Z,31.00
2022-10-08T10:30:49.504Z,30.90
2022-10-08T10:33:30.395Z,30.90
2022-10-08T10:36:00.696Z,30.80
2022-10-08T10:38:33.225Z,30.70
2022-10-08T10:41:13.856Z,30.70
2022-10-08T10:44:01.021Z,30.60
2022-10-08T10:46:40.058Z,30.50
2022-10-08T10:49:29.075Z,30.50
2022-10-08T10:52:08.994Z,30.40
2022-10-08T10:54:56.093Z,30.30
2022-10-08T10:57:43.234Z,30.30
2022-10-08T11:00:18.709Z,30.20
2022-10-08T11:02:58.681Z,30.20
2022-10-08T11:05:27.494Z,30.10
2022-10-08T11:08:14.659Z,30.10
2022-10-08T11:11:01.819Z,30.00
2022-10-08T11:13:37.192Z,30.00
2022-10-08T11:16:24.409Z,29.90
2022-10-08T11:18:54.464Z,29.90
2022-10-08T11:21:31.318Z,29.80
2022-10-08T11:24:18.471Z,29.80
2022-10-08T11:26:58.239Z,29.80
2022-10-08T11:29:34.286Z,29.70
2022-10-08T11:32:02.057Z,29.70
2022-10-08T11:34:34.955Z,29.60
2022-10-08T11:37:18.387Z,29.60
2022-10-08T11:40:05.521Z,29.60
2022-10-08T11:42:42.959Z,29.50
2022-10-08T11:45:32.445Z,29.50
2022-10-08T11:48:01.034Z,29.50
2022-10-08T11:50:37.171Z,29.50
2022-10-08T11:53:19.017Z,29.50
2022-10-08T11:55:59.337Z,29.40
2022-10-08T11:58:30.115Z,29.40
2022-10-08T12:01:08.560Z,29.40
2022-10-08T12:03:43.034Z,29.30
2022-10-08T12:06:24.962Z,29.30
2022-10-08T12:08:54.392Z,29.30
2022-10-08T12:11:40.488Z,29.30
2022-10-08T12:14:27.617Z,29.20
2022-10-08T12:17:12.857Z,29.20
2022-10-08T12:19:45.094Z,29.20
2022-10-08T12:22:32.251Z,29.10
2022-10-08T12:24:59.931Z,29.10
2022-10-08T12:27:29.838Z,29.10
2022-10-08T12:30:00.675Z,29.00
2022-10-08T12:32:29.199Z,29.00
2022-10-08T12:34:57.377Z,29.00
2022-10-08T12:37:44.821Z,29.00
2022-10-08T12:40:24.820Z,29.00
2022-10-08T12:42:58.205Z,28.90
2022-10-08T12:45:28.738Z,28.90
2022-10-08T12:48:09.315Z,28.90
2022-10-08T12:50:57.262Z,28.90
2022-10-08T12:53:25.086Z,28.80
2022-10-08T12:55:56.379Z,28.80
2022-10-08T12:58:31.863Z,28.80
2022-10-08T13:01:02.391Z,28.80
2022-10-08T13:03:30.231Z,28.80
2022-10-08T13:05:58.143Z,28.70
2022-10-08T13:08:31.010Z,28.70
2022-10-08T13:10:59.728Z,28.70
2022-10-08T13:13:35.018Z,28.70
2022-10-08T13:16:03.830Z,28.70
2022-10-08T13:18:31.878Z,28.70
2022-10-08T13:21:00.763Z,28.70
2022-10-08T13:23:36.273Z,28.70
2022-10-08T13:26:03.980Z,28.70
2022-10-08T13:28:59.091Z,28.60
2022-10-08T13:31:24.468Z,28.60
2022-10-08T13:33:52.063Z,28.60
2022-10-08T13:36:22.249Z,28.60
2022-10-08T13:38:49.813Z,28.60
2022-10-08T13:41:24.105Z,28.50
2022-10-08T13:43:51.896Z,28.50
2022-10-08T13:46:19.374Z,28.50
2022-10-08T13:48:46.925Z,28.50
2022-10-08T13:51:14.439Z,28.50
2022-10-08T13:53:45.859Z,28.40
2022-10-08T13:56:14.020Z,28.50
2022-10-08T13:58:41.566Z,28.40
2022-10-08T14:01:09.410Z,28.40
2022-10-08T14:03:36.998Z,28.40
2022-10-08T14:06:04.473Z,28.30
2022-10-08T14:08:34.636Z,28.30
2022-10-08T14:11:02.241Z,28.30
2022-10-08T14:13:30.097Z,28.20
2022-10-08T14:15:57.892Z,28.20
2022-10-08T14:18:26.640Z,28.30
2022-10-08T14:20:54.212Z,28.30
2022-10-08T14:23:22.363Z,28.30
2022-10-08T14:25:49.890Z,28.20
2022-10-08T14:28:17.621Z,28.20
2022-10-08T14:30:45.164Z,28.20
2022-10-08T14:33:12.815Z,28.20
2022-10-08T14:35:40.337Z,28.20
2022-10-08T14:38:09.057Z,28.20
2022-10-08T14:40:36.713Z,28.20
2022-10-08T14:43:04.288Z,28.20
2022-10-08T14:45:31.860Z,28.20
2022-10-08T14:47:59.521Z,28.20
2022-10-08T14:50:27.031Z,28.10
2022-10-08T14:52:55.216Z,28.10
2022-10-08T14:55:22.814Z,28.10
2022-10-08T14:57:50.437Z,28.10
2022-10-08T15:00:18.214Z,28.00
2022-10-08T15:02:46.092Z,28.00
2022-10-08T15:05:13.743Z,28.00
2022-10-08T15:07:41.192Z,28.00
2022-10-08T15:10:09.092Z,28.00
2022-10-08T15:12:36.700Z,27.90
2022-10-08T15:15:04.665Z,27.90
2022-10-08T15:17:32.254Z,27.90
2022-10-08T15:19:59.861Z,27.80
2022-10-08T15:22:27.433Z,27.80
2022-10-08T15:24:55.064Z,27.70
2022-10-08T15:27:23.537Z,27.70
2022-10-08T15:29:51.050Z,27.70
2022-10-08T15:32:19.324Z,27.60
2022-10-08T15:34:46.945Z,27.60
2022-10-08T15:37:14.986Z,27.60
2022-10-08T15:39:42.437Z,27.60
2022-10-08T15:42:13.142Z,27.60
2022-10-08T15:44:43.050Z,27.50
2022-10-08T15:47:12.418Z,27.50
2022-10-08T15:49:40.786Z,27.50
2022-10-08T15:52:10.510Z,27.50
2022-10-08T15:54:39.027Z,27.50
2022-10-08T15:57:07.054Z,27.50
2022-10-08T15:59:35.761Z,27.40
2022-10-08T16:02:03.410Z,27.40
2022-10-08T16:04:31.055Z,27.40
2022-10-08T16:06:58.635Z,27.30
2022-10-08T16:09:26.387Z,27.30
2022-10-08T16:11:54.900Z,27.30
2022-10-08T16:14:24.248Z,27.20
2022-10-08T16:16:52.311Z,27.20
2022-10-08T16:19:21.596Z,27.20
2022-10-08T16:21:50.762Z,27.10
2022-10-08T16:24:18.490Z,27.10
2022-10-08T16:26:47.283Z,27.10
2022-10-08T16:29:15.563Z,27.00
2022-10-08T16:31:44.742Z,27.10
2022-10-08T16:34:14.002Z,27.00
2022-10-08T16:36:41.949Z,27.10
2022-10-08T16:39:10.299Z,27.10
2022-10-08T16:41:38.237Z,27.10
2022-10-08T16:44:11.291Z,27.10
2022-10-08T16:46:41.563Z,27.10
2022-10-08T16:49:28.712Z,27.10
2022-10-08T16:51:58.243Z,27.10
2022-10-08T16:54:25.963Z,27.10
2022-10-08T16:56:53.924Z,27.10
2022-10-08T16:59:22.832Z,27.10
2022-10-08T17:01:52.401Z,27.10
2022-10-08T17:04:20.772Z,27.10
2022-10-08T17:06:48.674Z,27.00
2022-10-08T17:09:16.245Z,27.00
2022-10-08T17:11:44.007Z,27.00
2022-10-08T17:14:11.970Z,27.00
2022-10-08T17:16:40.692Z,27.00
2022-10-08T17:19:08.460Z,27.00
2022-10-08T17:21:36.073Z,27.00
2022-10-08T17:24:03.683Z,27.00
2022-10-08T17:26:31.771Z,27.00
2022-10-08T17:29:02.918Z,27.00
2022-10-08T17:31:32.056Z,27.00
2022-10-08T17:34:00.117Z,27.00
2022-10-08T17:36:31.388Z,27.00
2022-10-08T17:39:00.281Z,27.00
2022-10-08T17:41:28.824Z,26.90
2022-10-08T17:43:57.753Z,26.90
2022-10-08T17:46:28.120Z,26.90
2022-10-08T17:48:56.902Z,26.90
2022-10-08T17:51:25.845Z,26.90
2022-10-08T17:53:54.310Z,26.80
2022-10-08T17:56:22.177Z,26.80
2022-10-08T17:58:50.015Z,26.80
2022-10-08T18:01:20.334Z,26.80
2022-10-08T18:04:07.571Z,26.90
2022-10-08T18:06:35.897Z,26.90
2022-10-08T18:09:04.954Z,26.90
2022-10-08T18:11:33.723Z,26.90
2022-10-08T18:14:03.453Z,26.90
2022-10-08T18:16:31.009Z,26.80
2022-10-08T18:18:58.714Z,26.80
2022-10-08T18:21:26.681Z,26.80
2022-10-08T18:23:54.152Z,26.90
2022-10-08T18:26:23.057Z,26.90
2022-10-08T18:28:54.830Z,26.90
2022-10-08T18:31:23.342Z,26.90
2022-10-08T18:33:52.490Z,26.90
2022-10-08T18:36:25.257Z,26.90
2022-10-08T18:39:03.730Z,26.90
2022-10-08T18:41:33.211Z,26.90
2022-10-08T18:44:01.287Z,26.90
2022-10-08T18:46:29.134Z,26.80
2022-10-08T18:48:56.896Z,26.80
2022-10-08T18:51:26.030Z,26.80
2022-10-08T18:53:54.593Z,26.80
2022-10-08T18:56:24.602Z,26.80
2022-10-08T18:58:55.741Z,26.80
2022-10-08T19:01:24.602Z,26.80
2022-10-08T19:03:53.802Z,26.80
2022-10-08T19:06:22.890Z,26.80
2022-10-08T19:08:50.787Z,26.80
2022-10-08T19:11:22.731Z,26.80
2022-10-08T19:13:52.592Z,26.80
2022-10-08T19:16:20.287Z,26.80
2022-10-08T19:19:02.577Z,26.80
2022-10-08T19:21:31.147Z,26.80
2022-10-08T19:23:59.245Z,26.80
2022-10-08T19:26:28.002Z,26.80
2022-10-08T19:28:56.357Z,26.80
2022-10-08T19:31:31.775Z,26.80
2022-10-08T19:34:01.804Z,26.80
2022-10-08T19:36:30.293Z,26.80
2022-10-08T19:38:59.692Z,26.80
2022-10-08T19:41:27.814Z,26.80
2022-10-08T19:43:55.823Z,26.80
2022-10-08T19:46:23.815Z,26.80
2022-10-08T19:48:52.325Z,26.80
2022-10-08T19:51:20.273Z,26.80
2022-10-08T19:53:48.291Z,26.80
2022-10-08T19:56:16.405Z,26.80
2022-10-08T19:58:48.525Z,26.80
2022-10-08T20:01:17.874Z,26.80
2022-10-08T20:03:45.767Z,26.80
2022-10-08T20:06:15.040Z,26.80
2022-10-08T20:08:42.802Z,26.80
2022-10-08T20:11:14.852Z,26.80
2022-10-08T20:13:43.568Z,26.80
2022-10-08T20:16:13.237Z,26.80
2022-10-08T20:18:40.788Z,26.80
2022-10-08T20:21:10.181Z,26.70
2022-10-08T20:23:38.350Z,26.70
2022-10-08T20:26:10.289Z,26.80
2022-10-08T20:28:39.617Z,26.80
2022-10-08T20:31:27.532Z,26.80
2022-10-08T20:33:57.528Z,26.80
2022-10-08T20:36:25.523Z,26.80
2022-10-08T20:38:53.389Z,26.80
2022-10-08T20:41:21.111Z,26.80
2022-10-08T20:43:48.881Z,26.80
2022-10-08T20:46:16.590Z,26.80
2022-10-08T20:48:44.774Z,26.80
2022-10-08T20:51:13.841Z,26.80
2022-10-08T20:53:46.497Z,26.80
2022-10-08T20:56:14.074Z,26.80
2022-10-08T20:58:41.808Z,26.80
2022-10-08T21:01:17.229Z,26.80
2022-10-08T21:03:46.217Z,26.80
2022-10-08T21:06:22.051Z,26.80
2022-10-08T21:08:51.001Z,26.80
2022-10-08T21:11:19.683Z,26.80
2022-10-08T21:13:47.504Z,26.80
2022-10-08T21:16:17.082Z,26.70
2022-10-08T21:18:45.091Z,26.70
2022-10-08T21:21:13.812Z,26.70
2022-10-08T21:23:41.836Z,26.70
2022-10-08T21:26:17.140Z,26.60
2022-10-08T21:28:45.752Z,26.60
2022-10-08T21:31:13.727Z,26.60
2022-10-08T21:33:42.429Z,26.60
2022-10-08T21:36:11.573Z,26.60
2022-10-08T21:38:39.084Z,26.60
2022-10-08T21:41:13.842Z,26.60
2022-10-08T21:43:45.598Z,26.60
2022-10-08T21:46:14.758Z,26.60
2022-10-08T21:48:42.446Z,26.60
2022-10-08T21:51:11.302Z,26.60
2022-10-08T21:53:39.534Z,26.60
2022-10-08T21:56:15.168Z,26.50
2022-10-08T21:58:45.364Z,26.50
2022-10-08T22:01:25.119Z,26.50
2022-10-08T22:03:53.952Z,26.50
2022-10-08T22:06:21.976Z,26.40
2022-10-08T22:08:49.653Z,26.40
2022-10-08T22:11:17.406Z,26.40
2022-10-08T22:13:45.006Z,26.40
2022-10-08T22:16:13.760Z,26.40
2022-10-08T22:18:41.888Z,26.40
2022-10-08T22:21:11.467Z,26.40
2022-10-08T22:23:39.266Z,26.40
2022-10-08T22:26:12.006Z,26.40
2022-10-08T22:28:39.589Z,26.40
2022-10-08T22:31:08.798Z,26.40
2022-10-08T22:33:36.702Z,26.30
2022-10-08T22:36:08.557Z,26.30
2022-10-08T22:38:37.488Z,26.30
2022-10-08T22:41:06.527Z,26.30
2022-10-08T22:43:34.513Z,26.20
2022-10-08T22:46:06.445Z,26.20
2022-10-08T22:48:35.254Z,26.30
2022-10-08T22:51:03.333Z,26.20
2022-10-08T22:53:31.079Z,26.20
2022-10-08T22:55:58.654Z,26.20
2022-10-08T22:58:26.423Z,26.20
2022-10-08T23:01:05.024Z,26.20
2022-10-08T23:03:33.227Z,26.10
2022-10-08T23:06:08.812Z,26.10
2022-10-08T23:08:36.396Z,26.10
2022-10-08T23:11:05.701Z,26.10
2022-10-08T23:13:34.287Z,26.00
2022-10-08T23:16:09.486Z,26.00
2022-10-08T23:18:38.781Z,25.90
2022-10-08T23:21:08.096Z,25.90
2022-10-08T23:23:36.074Z,25.90
2022-10-08T23:26:05.256Z,25.90
2022-10-08T23:28:33.568Z,26.00
2022-10-08T23:31:12.010Z,26.00
2022-10-08T23:33:40.803Z,26.00
2022-10-08T23:36:09.641Z,26.00
2022-10-08T23:38:37.645Z,26.10
2022-10-08T23:41:06.702Z,26.00
2022-10-08T23:43:39.196Z,26.10
2022-10-08T23:46:07.548Z,26.10
2022-10-08T23:48:35.257Z,26.10
2022-10-08T23:51:02.866Z,26.10
2022-10-08T23:53:30.957Z,26.20
2022-10-08T23:55:58.454Z,26.20
2022-10-08T23:58:25.973Z,26.30
